Estación Meteorológica Peña el Pijo (Robertgarden) [ 06/14/24 10:41:44 CEST ]

Fecha Hora Presion(HPa) Temp (°C) Humedad % Rocio (°C) Viento ( m/s) Direccion Lluvia 1Hora(mm) Lluvia 24H(mm) LLuvia Total(mm)
2009-May-03 01:01:16 1017.500 7.8 70 2.7         319.60
2009-May-03 02:01:15 1017.500 5.5 71 0.7         319.60
2009-May-03 03:03:12 1017.000 3.4 78 -0.1         319.60
2009-May-03 04:01:12 1016.900 2.1 81 -0.8         319.60
2009-May-03 05:01:18 1016.800 1.3 83 -1.3         319.60
2009-May-03 06:01:17 1016.300 0.5 84 -1.9         319.60
2009-May-03 07:01:16 1016.500 0.3 87 -1.6         319.60
2009-May-03 08:01:15 1016.800 0.6 87 -1.3         319.60
2009-May-03 09:01:14 1016.600 7.2 72 2.5         319.60
2009-May-03 10:01:14 1016.400 14.3 45 2.5         319.60
2009-May-03 11:01:11 1016.500 17.1 34 1.0         319.60
2009-May-03 12:02:07 1016.500 18.6 28 -0.4 2.6 E     319.60
2009-May-03 13:01:12 1016.000 19.9 25 -0.9 2.9 NE     319.60
2009-May-03 14:01:11 1015.500 21.1 23 -1.0         319.60
2009-May-03 15:01:12 1015.300 22.7 24 0.9         319.60
2009-May-03 16:01:16 1014.900 - - -         319.60
2009-May-03 17:05:52 1014.600 - - - 2.4 NE     319.60
2009-May-03 18:01:19 1014.500 21.6 25 0.5         319.60
2009-May-03 19:01:18 1014.600 20.7 28 1.4 2.9 ENE     319.60
2009-May-03 20:01:15 1014.600 17.7 37 2.7         319.60
2009-May-03 21:01:16 1015.200 14.9 46 3.3         319.60
2009-May-03 22:01:13 1016.000 12.4 52 2.8         319.60
2009-May-03 23:01:14 1016.200 9.5 61 2.4         319.60

Temperatura Máxima:22°    Temperatura Mínima:
Presión Máxima:1017.500 Hpa    Presión Mínima:1014.500 Hpa


Volver